createdAt,value
2022-10-14T00:01:42.989Z,101083.09
2022-10-14T00:04:09.491Z,101088.38
2022-10-14T00:06:35.936Z,101087.72
2022-10-14T00:09:06.956Z,101086.03
2022-10-14T00:11:35.077Z,101091.25
2022-10-14T00:14:12.275Z,101086.06
2022-10-14T00:16:41.139Z,101089.06
2022-10-14T00:19:08.090Z,101080.66
2022-10-14T00:21:35.442Z,101075.34
2022-10-14T00:24:01.890Z,101080.91
2022-10-14T00:26:31.608Z,101073.00
2022-10-14T00:28:59.362Z,101079.88
2022-10-14T00:31:26.878Z,101073.38
2022-10-14T00:33:53.322Z,101081.28
2022-10-14T00:36:21.444Z,101077.00
2022-10-14T00:38:48.728Z,101077.94
2022-10-14T00:41:22.145Z,101075.75
2022-10-14T00:43:59.490Z,101067.72
2022-10-14T00:46:28.099Z,101073.94
2022-10-14T00:48:55.801Z,101074.03
2022-10-14T00:51:22.432Z,101067.84
2022-10-14T00:53:48.927Z,101068.00
2022-10-14T00:56:21.280Z,101069.94
2022-10-14T00:58:47.904Z,101064.38
2022-10-14T01:01:14.295Z,101067.22
2022-10-14T01:03:41.228Z,101067.59
2022-10-14T01:06:19.142Z,101073.66
2022-10-14T01:09:14.823Z,101069.78
2022-10-14T01:12:30.169Z,101068.25
2022-10-14T01:15:22.798Z,101064.84
2022-10-14T01:18:54.074Z,101062.16
2022-10-14T01:21:36.512Z,101046.41
2022-10-14T01:24:43.213Z,101049.25
2022-10-14T01:27:18.321Z,101053.38
2022-10-14T01:30:06.940Z,101058.53
2022-10-14T01:32:38.279Z,101057.25
2022-10-14T01:35:46.685Z,101054.13
2022-10-14T01:38:21.968Z,101054.41
2022-10-14T01:41:17.743Z,101046.75
2022-10-14T01:43:48.481Z,101054.66
2022-10-14T01:46:17.516Z,101045.88
2022-10-14T01:48:50.833Z,101047.16
2022-10-14T01:51:24.928Z,101038.63
2022-10-14T01:53:57.933Z,101048.81
2022-10-14T01:56:27.894Z,101053.56
2022-10-14T01:58:54.970Z,101048.00
2022-10-14T02:01:21.550Z,101051.63
2022-10-14T02:03:48.441Z,101047.00
2022-10-14T02:06:30.025Z,101053.97
2022-10-14T02:09:14.915Z,101050.84
2022-10-14T02:11:59.037Z,101039.56
2022-10-14T02:14:39.095Z,101041.66
2022-10-14T02:17:21.677Z,101035.25
2022-10-14T02:19:57.797Z,101024.44
2022-10-14T02:22:36.416Z,101019.91
2022-10-14T02:25:18.635Z,101019.25
2022-10-14T02:27:48.156Z,101014.50
2022-10-14T02:30:16.565Z,101016.94
2022-10-14T02:32:44.829Z,101016.41
2022-10-14T02:35:15.485Z,101030.84
2022-10-14T02:37:42.126Z,101028.81
2022-10-14T02:40:13.676Z,101026.59
2022-10-14T02:42:40.089Z,101027.59
2022-10-14T02:45:08.758Z,101028.97
2022-10-14T02:47:35.174Z,101025.88
2022-10-14T02:50:01.684Z,101023.84
2022-10-14T02:52:28.155Z,101033.91
2022-10-14T02:54:54.559Z,101028.44
2022-10-14T02:57:20.997Z,101028.13
2022-10-14T02:59:47.785Z,101025.13
2022-10-14T03:02:14.262Z,101030.22
2022-10-14T03:04:40.734Z,101033.91
2022-10-14T03:07:07.181Z,101032.38
2022-10-14T03:09:33.625Z,101027.72
2022-10-14T03:12:00.124Z,101029.00
2022-10-14T03:14:26.623Z,101020.25
2022-10-14T03:16:53.051Z,101024.38
2022-10-14T03:19:19.495Z,101013.56
2022-10-14T03:21:46.037Z,101017.00
2022-10-14T03:24:12.621Z,101012.72
2022-10-14T03:26:39.038Z,101014.31
2022-10-14T03:29:05.487Z,101016.66
2022-10-14T03:31:31.887Z,101015.59
2022-10-14T03:33:58.325Z,101016.88
2022-10-14T03:36:24.870Z,101018.38
2022-10-14T03:38:51.273Z,101023.97
2022-10-14T03:41:17.759Z,101024.69
2022-10-14T03:43:44.164Z,101024.94
2022-10-14T03:46:10.593Z,101026.63
2022-10-14T03:48:37.401Z,101023.66
2022-10-14T03:51:03.905Z,101023.56
2022-10-14T03:53:30.322Z,101025.44
2022-10-14T03:55:56.800Z,101027.88
2022-10-14T03:58:23.209Z,101022.72
2022-10-14T04:00:49.684Z,101012.97
2022-10-14T04:03:16.140Z,101010.78
2022-10-14T04:05:42.628Z,101015.78
2022-10-14T04:08:09.160Z,101017.56
2022-10-14T04:10:35.679Z,101018.38
2022-10-14T04:13:02.143Z,101011.94
2022-10-14T04:15:28.638Z,101016.19
2022-10-14T04:17:56.090Z,101022.78
2022-10-14T04:20:22.560Z,101035.31
2022-10-14T04:22:48.973Z,101026.78
2022-10-14T04:25:15.466Z,101027.53
2022-10-14T04:27:41.863Z,101023.78
2022-10-14T04:30:09.889Z,101020.91
2022-10-14T04:32:36.322Z,101025.03
2022-10-14T04:35:02.864Z,101017.53
2022-10-14T04:37:30.315Z,101026.03
2022-10-14T04:39:56.755Z,101018.94
2022-10-14T04:42:23.563Z,101026.13
2022-10-14T04:44:50.610Z,101020.47
2022-10-14T04:47:17.040Z,101027.31
2022-10-14T04:49:43.461Z,101025.16
2022-10-14T04:52:09.884Z,101020.31
2022-10-14T04:54:36.292Z,101019.78
2022-10-14T04:57:02.805Z,101011.53
2022-10-14T04:59:29.270Z,101021.63
2022-10-14T05:01:55.790Z,101011.56
2022-10-14T05:04:22.477Z,101010.41
2022-10-14T05:06:48.974Z,101006.50
2022-10-14T05:09:15.369Z,101007.69
2022-10-14T05:11:41.843Z,101006.41
2022-10-14T05:14:08.278Z,101007.59
2022-10-14T05:16:34.763Z,101001.75
2022-10-14T05:19:01.153Z,101007.31
2022-10-14T05:21:27.605Z,101004.50
2022-10-14T05:23:54.023Z,100997.91
2022-10-14T05:26:20.449Z,101001.47
2022-10-14T05:28:46.941Z,101006.38
2022-10-14T05:31:13.499Z,101013.47
2022-10-14T05:33:39.947Z,101011.47
2022-10-14T05:36:06.896Z,101001.63
2022-10-14T05:38:34.148Z,101003.47
2022-10-14T05:41:00.752Z,101006.09
2022-10-14T05:43:32.108Z,101006.34
2022-10-14T05:45:59.869Z,101001.78
2022-10-14T05:48:26.404Z,100997.88
2022-10-14T05:50:52.926Z,100996.63
2022-10-14T05:53:19.482Z,100996.81
2022-10-14T05:55:45.900Z,101001.84
2022-10-14T05:58:12.308Z,101004.13
2022-10-14T06:00:38.813Z,100998.28
2022-10-14T06:03:05.555Z,100993.84
2022-10-14T06:05:36.434Z,100983.69
2022-10-14T06:08:03.235Z,100986.38
2022-10-14T06:10:29.663Z,100983.72
2022-10-14T06:12:56.731Z,100989.50
2022-10-14T06:15:23.226Z,100989.94
2022-10-14T06:17:49.647Z,100997.59
2022-10-14T06:20:16.073Z,101003.38
2022-10-14T06:22:42.501Z,100998.44
2022-10-14T06:25:09.413Z,101008.75
2022-10-14T06:27:35.819Z,101008.38
2022-10-14T06:30:02.369Z,101015.25
2022-10-14T06:32:28.828Z,101015.25
2022-10-14T06:34:55.343Z,101015.06
2022-10-14T06:37:21.784Z,101016.63
2022-10-14T06:39:48.203Z,101025.78
2022-10-14T06:42:14.810Z,101023.63
2022-10-14T06:44:41.258Z,101025.91
2022-10-14T06:47:08.069Z,101028.41
2022-10-14T06:49:34.755Z,101027.81
2022-10-14T06:52:01.324Z,101029.97
2022-10-14T06:54:27.807Z,101037.22
2022-10-14T06:56:55.377Z,101040.53
2022-10-14T06:59:21.921Z,101039.78
2022-10-14T07:01:48.378Z,101039.69
2022-10-14T07:04:14.803Z,101052.75
2022-10-14T07:06:41.636Z,101042.94
2022-10-14T07:09:08.070Z,101044.03
2022-10-14T07:11:34.475Z,101051.28
2022-10-14T07:14:00.945Z,101045.06
2022-10-14T07:16:28.225Z,101053.59
2022-10-14T07:18:54.716Z,101061.09
2022-10-14T07:21:21.187Z,101065.75
2022-10-14T07:23:47.641Z,101062.69
2022-10-14T07:26:14.104Z,101067.59
2022-10-14T07:28:40.598Z,101076.13
2022-10-14T07:31:09.978Z,101081.03
2022-10-14T07:36:16.078Z,101076.38
2022-10-14T07:38:45.316Z,101085.41
2022-10-14T07:41:18.082Z,101089.28
2022-10-14T07:43:46.965Z,101087.75
2022-10-14T07:46:14.541Z,101087.38
2022-10-14T07:48:57.588Z,101087.13
2022-10-14T07:51:25.135Z,101082.97
2022-10-14T07:53:53.057Z,101084.78
2022-10-14T07:56:19.930Z,101085.56
2022-10-14T07:58:46.612Z,101085.56
2022-10-14T08:01:15.276Z,101082.06
2022-10-14T08:03:43.026Z,101085.44
2022-10-14T08:06:09.783Z,101076.25
2022-10-14T08:08:36.315Z,101077.69
2022-10-14T08:11:13.268Z,101077.28
2022-10-14T08:13:43.526Z,101070.94
2022-10-14T08:16:26.996Z,101071.97
2022-10-14T08:18:56.166Z,101056.63
2022-10-14T08:21:22.713Z,101065.13
2022-10-14T08:23:49.613Z,101074.19
2022-10-14T08:26:36.240Z,101075.22
2022-10-14T08:29:06.453Z,101075.84
2022-10-14T08:31:33.788Z,101075.16
2022-10-14T08:34:00.450Z,101088.75
2022-10-14T08:36:26.953Z,101085.03
2022-10-14T08:38:54.452Z,101081.75
2022-10-14T08:41:38.941Z,101092.34
2022-10-14T08:44:27.257Z,101088.31
2022-10-14T08:46:59.270Z,101100.16
2022-10-14T08:50:01.645Z,101092.88
2022-10-14T08:52:36.461Z,101092.31
2022-10-14T08:55:35.482Z,101090.84
2022-10-14T08:58:16.082Z,101093.03
2022-10-14T09:00:47.596Z,101087.53
2022-10-14T09:03:20.578Z,101093.53
2022-10-14T09:05:57.520Z,101096.91
2022-10-14T09:08:30.934Z,101092.00
2022-10-14T09:10:58.381Z,101096.16
2022-10-14T09:13:35.027Z,101081.06
2022-10-14T09:16:25.510Z,101079.59
2022-10-14T09:18:58.012Z,101069.81
2022-10-14T09:21:53.564Z,101075.09
2022-10-14T09:24:26.847Z,101075.25
2022-10-14T09:27:21.870Z,101080.75
2022-10-14T09:29:59.086Z,101073.75
2022-10-14T09:32:46.538Z,101076.56
2022-10-14T09:35:17.157Z,101082.31
2022-10-14T09:37:43.623Z,101080.78
2022-10-14T09:40:13.196Z,101080.28
2022-10-14T09:42:39.538Z,101089.97
2022-10-14T09:45:08.834Z,101089.69
2022-10-14T09:47:45.640Z,101087.81
2022-10-14T09:50:22.068Z,101084.16
2022-10-14T09:53:02.381Z,101083.69
2022-10-14T09:55:29.775Z,101078.63
2022-10-14T09:58:17.055Z,101074.44
2022-10-14T10:00:45.892Z,101074.09
2022-10-14T10:03:32.609Z,101068.44
2022-10-14T10:06:10.857Z,101067.56
2022-10-14T10:08:54.337Z,101067.13
2022-10-14T10:11:46.941Z,101059.69
2022-10-14T10:14:22.184Z,101063.69
2022-10-14T10:19:32.094Z,101060.63
2022-10-14T10:22:24.169Z,101057.00
2022-10-14T10:25:12.129Z,101061.69
2022-10-14T10:27:45.653Z,101054.13
2022-10-14T10:30:15.285Z,101049.50
2022-10-14T10:32:47.548Z,101049.72
2022-10-14T10:35:29.661Z,101052.38
2022-10-14T10:38:20.512Z,101053.97
2022-10-14T10:41:18.693Z,101049.72
2022-10-14T10:44:02.301Z,101052.81
2022-10-14T10:47:09.696Z,101046.38
2022-10-14T10:50:01.912Z,101037.41
2022-10-14T10:53:07.051Z,101032.91
2022-10-14T10:55:54.039Z,101022.66
2022-10-14T10:58:20.711Z,101025.03
2022-10-14T11:01:01.226Z,101026.53
2022-10-14T11:03:58.899Z,101016.66
2022-10-14T11:06:50.119Z,101016.06
2022-10-14T11:09:44.542Z,101006.66
2022-10-14T11:12:29.714Z,100997.81
2022-10-14T11:15:15.723Z,100996.66
2022-10-14T11:18:02.227Z,100996.31
2022-10-14T11:20:50.547Z,100994.75
2022-10-14T11:23:57.095Z,100990.19
2022-10-14T11:26:41.501Z,100990.09
2022-10-14T11:29:22.935Z,100978.22
2022-10-14T11:32:05.169Z,100982.44
2022-10-14T11:34:38.020Z,100974.69
2022-10-14T11:37:31.910Z,100970.72
2022-10-14T11:40:02.738Z,100970.56
2022-10-14T11:42:48.442Z,100964.44
2022-10-14T11:45:35.144Z,100965.59
2022-10-14T11:48:21.753Z,100965.59
2022-10-14T11:50:56.224Z,100961.22
2022-10-14T11:53:44.348Z,100963.56
2022-10-14T11:56:23.949Z,100962.34
2022-10-14T11:58:53.079Z,100952.78
2022-10-14T12:01:26.484Z,100944.13
2022-10-14T12:04:15.264Z,100948.53
2022-10-14T12:06:49.008Z,100957.03
2022-10-14T12:09:57.415Z,100956.28
2022-10-14T12:12:29.121Z,100950.19
2022-10-14T12:15:04.320Z,100942.50
2022-10-14T12:17:39.151Z,100945.28
2022-10-14T12:20:18.194Z,100938.25
2022-10-14T12:22:49.394Z,100934.31
2022-10-14T12:25:21.516Z,100929.44
2022-10-14T12:27:50.119Z,100924.75
2022-10-14T12:30:37.322Z,100913.69
2022-10-14T12:33:09.453Z,100902.56
2022-10-14T12:35:50.107Z,100903.97
2022-10-14T12:38:16.524Z,100901.59
2022-10-14T12:40:43.040Z,100896.03
2022-10-14T12:43:12.424Z,100890.56
2022-10-14T12:46:07.331Z,100886.88
2022-10-14T12:48:36.169Z,100883.47
2022-10-14T12:51:21.987Z,100874.91
2022-10-14T12:53:57.986Z,100887.06
2022-10-14T12:56:53.527Z,100884.84
2022-10-14T12:59:28.517Z,100882.09
2022-10-14T13:02:01.308Z,100873.13
2022-10-14T13:04:28.613Z,100872.63
2022-10-14T13:07:35.729Z,100873.91
2022-10-14T13:10:26.972Z,100864.22
2022-10-14T13:12:53.871Z,100860.75
2022-10-14T13:15:36.068Z,100852.28
2022-10-14T13:18:39.930Z,100854.09
2022-10-14T13:21:08.816Z,100855.00
2022-10-14T13:23:49.454Z,100848.88
2022-10-14T13:26:21.698Z,100846.03
2022-10-14T13:28:53.815Z,100839.72
2022-10-14T13:31:27.927Z,100852.13
2022-10-14T13:34:08.037Z,100861.84
2022-10-14T13:36:39.825Z,100848.69
2022-10-14T13:39:09.544Z,100851.97
2022-10-14T13:41:37.807Z,100852.69
2022-10-14T13:44:04.398Z,100850.81
2022-10-14T13:46:41.595Z,100845.53
2022-10-14T13:51:55.010Z,100841.69
2022-10-14T13:54:23.925Z,100836.22
2022-10-14T14:00:37.882Z,100837.25
2022-10-14T14:02:34.908Z,100828.78
2022-10-14T14:05:01.949Z,100834.97
2022-10-14T14:07:59.596Z,100827.97
2022-10-14T14:10:24.321Z,100828.78
2022-10-14T14:12:51.384Z,100828.28
2022-10-14T14:15:26.634Z,100821.59
2022-10-14T14:17:53.835Z,100828.47
2022-10-14T14:20:23.373Z,100825.44
2022-10-14T14:22:50.417Z,100818.09
2022-10-14T14:25:38.161Z,100825.13
2022-10-14T14:28:06.898Z,100816.22
2022-10-14T14:30:38.975Z,100814.34
2022-10-14T14:33:12.223Z,100812.72
2022-10-14T14:35:40.709Z,100813.94
2022-10-14T14:38:24.218Z,100812.31
2022-10-14T14:41:02.713Z,100810.34
2022-10-14T14:43:34.735Z,100810.91
2022-10-14T14:46:02.976Z,100803.00
2022-10-14T14:48:30.892Z,100801.00
2022-10-14T14:50:58.651Z,100807.72
2022-10-14T14:53:29.578Z,100798.00
2022-10-14T14:55:55.866Z,100801.34
2022-10-14T14:58:24.851Z,100809.34
2022-10-14T15:00:54.046Z,100797.25
2022-10-14T15:03:22.886Z,100803.22
2022-10-14T15:06:00.494Z,100804.44
2022-10-14T15:08:37.765Z,100797.78
2022-10-14T15:11:04.627Z,100789.13
2022-10-14T15:13:40.464Z,100788.69
2022-10-14T15:16:08.575Z,100788.59
2022-10-14T15:18:37.522Z,100796.19
2022-10-14T15:21:19.130Z,100791.56
2022-10-14T15:24:00.339Z,100791.22
2022-10-14T15:26:35.269Z,100794.31
2022-10-14T15:29:07.744Z,100795.78
2022-10-14T15:31:35.913Z,100795.34
2022-10-14T15:34:03.349Z,100783.69
2022-10-14T15:36:34.788Z,100790.22
2022-10-14T15:39:02.463Z,100783.81
2022-10-14T15:41:29.164Z,100789.03
2022-10-14T15:43:55.724Z,100783.81
2022-10-14T15:46:41.587Z,100778.44
2022-10-14T15:49:25.592Z,100787.63
2022-10-14T15:51:52.026Z,100787.47
2022-10-14T15:54:18.462Z,100787.22
2022-10-14T15:56:46.259Z,100794.94
2022-10-14T15:59:15.475Z,100791.34
2022-10-14T16:01:42.868Z,100795.66
2022-10-14T16:04:19.632Z,100792.91
2022-10-14T16:06:46.788Z,100795.25
2022-10-14T16:09:13.734Z,100799.34
2022-10-14T16:11:40.219Z,100802.78
2022-10-14T16:14:08.123Z,100802.78
2022-10-14T16:16:40.532Z,100800.16
2022-10-14T16:19:06.957Z,100803.50
2022-10-14T16:21:33.591Z,100806.81
2022-10-14T16:24:02.211Z,100808.47
2022-10-14T16:26:29.360Z,100805.66
2022-10-14T16:28:55.958Z,100812.47
2022-10-14T16:31:23.085Z,100820.94
2022-10-14T16:33:50.877Z,100825.00
2022-10-14T16:36:17.482Z,100820.41
2022-10-14T16:38:44.268Z,100821.06
2022-10-14T16:41:11.747Z,100818.25
2022-10-14T16:43:38.927Z,100819.59
2022-10-14T16:46:07.503Z,100825.47
2022-10-14T16:48:36.069Z,100817.38
2022-10-14T16:51:03.520Z,100821.50
2022-10-14T16:53:48.803Z,100820.41
2022-10-14T16:56:38.913Z,100826.88
2022-10-14T16:59:08.152Z,100828.31
2022-10-14T17:01:34.697Z,100820.13
2022-10-14T17:04:01.192Z,100829.44
2022-10-14T17:06:27.622Z,100828.28
2022-10-14T17:08:54.668Z,100830.59
2022-10-14T17:11:21.328Z,100834.69
2022-10-14T17:13:52.175Z,100844.00
2022-10-14T17:16:18.609Z,100844.53
2022-10-14T17:18:45.074Z,100844.34
2022-10-14T17:21:12.224Z,100845.06
2022-10-14T17:23:42.059Z,100844.88
2022-10-14T17:26:11.952Z,100850.09
2022-10-14T17:28:38.893Z,100854.06
2022-10-14T17:31:10.692Z,100859.91
2022-10-14T17:33:40.497Z,100858.81
2022-10-14T17:36:07.832Z,100858.63
2022-10-14T17:38:35.631Z,100862.91
2022-10-14T17:41:09.769Z,100867.94
2022-10-14T17:43:37.196Z,100865.94
2022-10-14T17:48:42.253Z,100862.34
2022-10-14T17:51:12.994Z,100862.88
2022-10-14T17:53:40.201Z,100865.78
2022-10-14T17:56:11.945Z,100877.78
2022-10-14T17:58:38.873Z,100868.19
2022-10-14T18:01:08.498Z,100861.16
2022-10-14T18:03:36.949Z,100871.56
2022-10-14T18:06:12.149Z,100871.97
2022-10-14T18:08:40.233Z,100874.00
2022-10-14T18:11:10.856Z,100872.91
2022-10-14T18:16:13.125Z,100868.38
2022-10-14T18:18:40.449Z,100870.00
2022-10-14T18:21:07.622Z,100868.91
2022-10-14T18:23:38.720Z,100878.00
2022-10-14T18:26:13.549Z,100874.56
2022-10-14T18:28:43.104Z,100866.34
2022-10-14T18:31:12.271Z,100872.13
2022-10-14T18:33:39.803Z,100871.31
2022-10-14T18:36:08.138Z,100873.63
2022-10-14T18:38:35.162Z,100869.91
2022-10-14T18:41:05.230Z,100869.91
2022-10-14T18:43:32.548Z,100865.91
2022-10-14T18:46:04.905Z,100863.19
2022-10-14T18:48:31.695Z,100869.78
2022-10-14T18:50:59.494Z,100871.72
2022-10-14T18:53:26.608Z,100867.50
2022-10-14T18:55:56.710Z,100866.63
2022-10-14T18:58:26.012Z,100866.44
2022-10-14T19:00:52.812Z,100865.44
2022-10-14T19:03:19.293Z,100867.34
2022-10-14T19:05:47.094Z,100868.47
2022-10-14T19:10:45.410Z,100871.44
2022-10-14T19:13:12.186Z,100872.34
2022-10-14T19:15:45.333Z,100864.63
2022-10-14T19:18:14.197Z,100863.16
2022-10-14T19:20:41.832Z,100864.63
2022-10-14T19:23:08.900Z,100863.22
2022-10-14T19:25:36.366Z,100862.16
2022-10-14T19:28:02.881Z,100864.31
2022-10-14T19:30:29.288Z,100864.53
2022-10-14T19:32:55.702Z,100869.16
2022-10-14T19:35:22.134Z,100870.94
2022-10-14T19:37:48.708Z,100872.22
2022-10-14T19:40:18.660Z,100876.06
2022-10-14T19:42:47.871Z,100868.44
2022-10-14T19:45:14.338Z,100880.06
2022-10-14T19:47:40.785Z,100881.31
2022-10-14T19:50:07.656Z,100885.13
2022-10-14T19:52:34.098Z,100875.44
2022-10-14T19:55:00.669Z,100884.50
2022-10-14T19:57:27.376Z,100890.06
2022-10-14T19:59:53.971Z,100887.34
2022-10-14T20:02:20.484Z,100890.94
2022-10-14T20:04:46.908Z,100891.97
2022-10-14T20:07:13.583Z,100897.16
2022-10-14T20:09:40.001Z,100899.06
2022-10-14T20:12:07.049Z,100897.34
2022-10-14T20:14:33.473Z,100905.38
2022-10-14T20:17:01.620Z,100903.59
2022-10-14T20:19:28.044Z,100903.13
2022-10-14T20:21:54.613Z,100904.84
2022-10-14T20:24:21.075Z,100904.84
2022-10-14T20:26:47.492Z,100900.66
2022-10-14T20:29:14.141Z,100903.13
2022-10-14T20:31:40.528Z,100900.09
2022-10-14T20:34:10.418Z,100906.63
2022-10-14T20:36:37.881Z,100910.03
2022-10-14T20:39:04.338Z,100910.47
2022-10-14T20:41:30.769Z,100909.00
2022-10-14T20:43:57.317Z,100902.69
2022-10-14T20:46:25.118Z,100910.03
2022-10-14T20:48:58.118Z,100903.50
2022-10-14T20:51:24.705Z,100907.88
2022-10-14T20:54:00.380Z,100909.91
2022-10-14T20:56:31.200Z,100906.88
2022-10-14T20:58:59.766Z,100906.16
2022-10-14T21:01:28.324Z,100911.94
2022-10-14T21:03:56.040Z,100901.47
2022-10-14T21:06:24.392Z,100899.00
2022-10-14T21:08:51.775Z,100901.56
2022-10-14T21:11:23.427Z,100898.31
2022-10-14T21:13:54.906Z,100902.59
2022-10-14T21:16:35.759Z,100897.97
2022-10-14T21:19:07.768Z,100897.03
2022-10-14T21:21:39.709Z,100901.66
2022-10-14T21:24:07.009Z,100902.81
2022-10-14T21:26:33.538Z,100895.81
2022-10-14T21:29:02.177Z,100894.22
2022-10-14T21:31:28.639Z,100898.50
2022-10-14T21:34:01.127Z,100893.75
2022-10-14T21:36:29.332Z,100898.19
2022-10-14T21:38:57.086Z,100896.47
2022-10-14T21:41:27.783Z,100900.50
2022-10-14T21:43:58.717Z,100898.25
2022-10-14T21:46:25.891Z,100898.59
2022-10-14T21:48:57.148Z,100893.75
2022-10-14T21:51:26.133Z,100896.81
2022-10-14T21:53:52.597Z,100896.69
2022-10-14T21:56:19.434Z,100897.22
2022-10-14T21:58:45.858Z,100903.94
2022-10-14T22:01:17.288Z,100905.13
2022-10-14T22:03:44.669Z,100912.00
2022-10-14T22:06:15.981Z,100904.13
2022-10-14T22:08:45.769Z,100907.94
2022-10-14T22:11:21.817Z,100908.06
2022-10-14T22:13:49.303Z,100905.00
2022-10-14T22:16:19.578Z,100907.88
2022-10-14T22:18:47.655Z,100910.03
2022-10-14T22:21:16.310Z,100908.88
2022-10-14T22:23:43.255Z,100904.03
2022-10-14T22:26:13.008Z,100902.81
2022-10-14T22:28:40.170Z,100902.69
2022-10-14T22:31:11.849Z,100895.03
2022-10-14T22:33:39.699Z,100902.81
2022-10-14T22:36:14.405Z,100908.88
2022-10-14T22:38:43.659Z,100906.28
2022-10-14T22:41:12.009Z,100908.53
2022-10-14T22:43:39.137Z,100916.38
2022-10-14T22:46:10.167Z,100915.81
2022-10-14T22:48:37.036Z,100904.69
2022-10-14T22:51:08.708Z,100903.41
2022-10-14T22:53:35.613Z,100901.09
2022-10-14T22:56:02.960Z,100901.31
2022-10-14T22:58:29.435Z,100895.72
2022-10-14T23:00:55.968Z,100901.25
2022-10-14T23:03:22.517Z,100903.03
2022-10-14T23:05:48.933Z,100903.38
2022-10-14T23:08:15.567Z,100910.22
2022-10-14T23:10:42.626Z,100907.84
2022-10-14T23:13:09.488Z,100900.63
2022-10-14T23:15:36.344Z,100905.38
2022-10-14T23:18:03.412Z,100890.97
2022-10-14T23:20:33.075Z,100901.09
2022-10-14T23:22:59.467Z,100905.25
2022-10-14T23:25:25.867Z,100897.25
2022-10-14T23:27:52.255Z,100899.59
2022-10-14T23:30:18.726Z,100901.75
2022-10-14T23:32:45.106Z,100906.81
2022-10-14T23:35:11.511Z,100910.44
2022-10-14T23:37:37.922Z,100907.28
2022-10-14T23:40:04.847Z,100909.88
2022-10-14T23:42:31.284Z,100921.13
2022-10-14T23:44:57.770Z,100918.41
2022-10-14T23:47:24.484Z,100923.44
2022-10-14T23:49:51.154Z,100928.47
2022-10-14T23:52:17.564Z,100927.34
2022-10-14T23:54:44.016Z,100932.78
2022-10-14T23:57:10.457Z,100923.56
2022-10-14T23:59:36.865Z,100925.78
